TGPY/GND METAR and TAF weather

Enter ICAO airport designator
Station Type Date Time Source
TGPY METAR 2019/07/20 05:00 UTC NOAA

TGPY 200500Z 06009KT 9999 FEW018 27/24 Q1014 NOSIG


Station Type Date Time Source
TGPY Decoded METAR 2019/07/20 05:00 UTC NOAA

Point Salines Airport, Grenada (TGPY) 12-00N 061-47W 7M
Jul 20, 2019 - 01:00 AM EDT / 2019.07.20 0500 UTC
Wind: from the ENE (060 degrees) at 10 MPH (9 KT):0
Visibility: greater than 7 mile(s):0
Sky conditions: mostly clear
Temperature: 80 F (27 C)
Dew Point: 75 F (24 C)
Relative Humidity: 83%
Pressure (altimeter): 29.94 in. Hg (1014 hPa)
ob: TGPY 200500Z 06009KT 9999 FEW018 27/24 Q1014 NOSIG
cycle: 5

Station Type Date Time Source
TGPY TAF 2019/07/20 06:10 UTC NOAA

TAF TGPY 200400Z 2006/2106 07006KT 9999 FEW020
BECMG 2012/2014 09014KT

Example: see airport list